createdAt,value
2023-04-07T00:01:07.977Z,4.71
2023-04-07T00:03:41.613Z,4.71
2023-04-07T00:06:14.176Z,4.70
2023-04-07T00:08:46.078Z,4.67
2023-04-07T00:11:18.217Z,4.64
2023-04-07T00:13:50.276Z,4.59
2023-04-07T00:16:23.136Z,4.55
2023-04-07T00:18:55.261Z,4.52
2023-04-07T00:21:27.313Z,4.51
2023-04-07T00:23:59.400Z,4.50
2023-04-07T00:26:33.119Z,4.46
2023-04-07T00:29:05.130Z,4.42
2023-04-07T00:31:37.155Z,4.40
2023-04-07T00:34:09.266Z,4.35
2023-04-07T00:36:41.293Z,4.32
2023-04-07T00:39:13.325Z,4.29
2023-04-07T00:41:45.853Z,4.25
2023-04-07T00:44:17.984Z,4.21
2023-04-07T00:46:50.186Z,4.17
2023-04-07T00:49:22.314Z,4.14
2023-04-07T00:51:56.934Z,4.12
2023-04-07T00:54:30.602Z,4.09
2023-04-07T00:57:02.844Z,4.06
2023-04-07T00:59:35.181Z,4.02
2023-04-07T01:02:19.202Z,3.99
2023-04-07T01:04:54.434Z,3.97
2023-04-07T01:07:29.546Z,3.95
2023-04-07T01:10:08.098Z,3.91
2023-04-07T01:12:48.151Z,3.88
2023-04-07T01:15:23.846Z,3.85
2023-04-07T01:18:08.957Z,3.81
2023-04-07T01:20:43.374Z,3.78
2023-04-07T01:23:18.554Z,3.74
2023-04-07T01:25:56.260Z,3.70
2023-04-07T01:28:37.008Z,3.65
2023-04-07T01:31:11.681Z,3.60
2023-04-07T01:33:46.256Z,3.58
2023-04-07T01:36:19.461Z,3.56
2023-04-07T01:38:55.406Z,3.53
2023-04-07T01:41:28.410Z,3.51
2023-04-07T01:44:02.278Z,3.47
2023-04-07T01:46:35.121Z,3.44
2023-04-07T01:49:07.997Z,3.41
2023-04-07T01:51:41.316Z,3.39
2023-04-07T01:54:13.460Z,3.36
2023-04-07T01:56:46.252Z,3.33
2023-04-07T01:59:18.602Z,3.31
2023-04-07T02:01:51.202Z,3.29
2023-04-07T02:04:37.344Z,3.26
2023-04-07T02:07:12.858Z,3.24
2023-04-07T02:09:48.414Z,3.21
2023-04-07T02:12:21.412Z,3.18
2023-04-07T02:14:57.012Z,3.14
2023-04-07T02:17:30.328Z,3.10
2023-04-07T02:20:03.557Z,3.08
2023-04-07T02:22:36.009Z,3.04
2023-04-07T02:25:25.706Z,2.99
2023-04-07T02:28:00.496Z,2.95
2023-04-07T02:30:32.486Z,2.93
2023-04-07T02:33:04.630Z,2.89
2023-04-07T02:35:36.752Z,2.87
2023-04-07T02:38:08.856Z,2.86
2023-04-07T02:40:41.136Z,2.85
2023-04-07T02:43:13.429Z,2.86
2023-04-07T02:45:45.942Z,2.85
2023-04-07T02:48:18.298Z,2.85
2023-04-07T02:50:50.639Z,2.86
2023-04-07T02:53:22.677Z,2.87
2023-04-07T02:55:54.687Z,2.86
2023-04-07T02:58:26.850Z,2.89
2023-04-07T03:00:59.109Z,2.89
2023-04-07T03:03:33.080Z,2.91
2023-04-07T03:06:12.759Z,2.93
2023-04-07T03:08:46.590Z,2.97
2023-04-07T03:11:18.695Z,3.00
2023-04-07T03:13:52.538Z,3.03
2023-04-07T03:16:24.857Z,3.05
2023-04-07T03:18:58.643Z,3.09
2023-04-07T03:21:32.051Z,3.14
2023-04-07T03:24:04.586Z,3.18
2023-04-07T03:26:37.552Z,3.23
2023-04-07T03:29:10.313Z,3.28
2023-04-07T03:31:42.408Z,3.47
2023-04-07T03:34:15.565Z,3.41
2023-04-07T03:36:47.899Z,3.48
2023-04-07T03:39:20.495Z,3.57
2023-04-07T03:41:54.207Z,3.64
2023-04-07T03:44:27.099Z,3.68
2023-04-07T03:46:59.914Z,3.71
2023-04-07T03:49:32.642Z,3.77
2023-04-07T03:52:06.143Z,3.85
2023-04-07T03:54:38.069Z,4.01
2023-04-07T03:57:10.982Z,3.96
2023-04-07T03:59:44.987Z,4.02
2023-04-07T04:02:17.207Z,4.06
2023-04-07T04:04:50.321Z,4.14
2023-04-07T04:07:23.296Z,4.20
2023-04-07T04:09:57.326Z,4.27
2023-04-07T04:12:29.550Z,4.33
2023-04-07T04:15:06.801Z,4.42
2023-04-07T04:17:39.369Z,4.49
2023-04-07T04:20:13.169Z,4.58
2023-04-07T04:22:46.831Z,4.68
2023-04-07T04:25:19.369Z,4.78
2023-04-07T04:27:53.628Z,4.85
2023-04-07T04:30:27.662Z,4.93
2023-04-07T04:33:02.221Z,5.02
2023-04-07T04:35:39.674Z,5.09
2023-04-07T04:38:12.708Z,5.17
2023-04-07T04:40:46.511Z,5.39
2023-04-07T04:43:19.813Z,5.34
2023-04-07T04:45:52.320Z,5.40
2023-04-07T04:48:26.085Z,5.43
2023-04-07T04:50:58.288Z,5.49
2023-04-07T04:53:30.970Z,5.58
2023-04-07T04:56:05.882Z,5.66
2023-04-07T04:58:42.426Z,5.74
2023-04-07T05:01:16.055Z,5.82
2023-04-07T05:03:50.160Z,5.90
2023-04-07T05:06:23.662Z,5.98
2023-04-07T05:08:56.455Z,6.21
2023-04-07T05:11:30.521Z,6.17
2023-04-07T05:14:02.567Z,6.28
2023-04-07T05:16:34.987Z,6.36
2023-04-07T05:19:08.443Z,6.44
2023-04-07T05:21:41.072Z,6.51
2023-04-07T05:24:14.724Z,6.58
2023-04-07T05:26:48.499Z,6.66
2023-04-07T05:29:21.123Z,6.79
2023-04-07T05:31:53.406Z,6.90
2023-04-07T05:34:26.998Z,7.03
2023-04-07T05:37:00.127Z,7.12
2023-04-07T05:39:33.188Z,7.23
2023-04-07T05:42:06.713Z,7.29
2023-04-07T05:44:40.765Z,7.39
2023-04-07T05:47:12.864Z,7.51
2023-04-07T05:49:48.815Z,7.59
2023-04-07T05:52:21.201Z,7.68
2023-04-07T05:54:55.537Z,7.89
2023-04-07T05:57:30.185Z,8.49
2023-04-07T06:00:02.569Z,9.34
2023-04-07T06:02:35.998Z,9.82
2023-04-07T06:05:10.149Z,10.18
2023-04-07T06:07:43.221Z,10.60
2023-04-07T06:10:16.243Z,11.20
2023-04-07T06:12:49.367Z,12.23
2023-04-07T06:15:21.286Z,13.15
2023-04-07T06:17:53.403Z,13.44
2023-04-07T06:20:27.329Z,13.81
2023-04-07T06:22:59.918Z,14.05
2023-04-07T06:25:32.082Z,14.32
2023-04-07T06:28:06.935Z,14.38
2023-04-07T06:30:39.044Z,14.70
2023-04-07T06:33:12.695Z,14.97
2023-04-07T06:35:45.087Z,15.00
2023-04-07T06:38:17.918Z,14.62
2023-04-07T06:40:50.180Z,14.39
2023-04-07T06:43:22.691Z,15.06
2023-04-07T06:46:02.693Z,16.08
2023-04-07T06:48:34.931Z,17.26
2023-04-07T06:51:07.179Z,17.94
2023-04-07T06:53:39.724Z,18.96
2023-04-07T06:56:12.849Z,20.42
2023-04-07T06:58:44.914Z,21.21
2023-04-07T07:01:17.570Z,21.43
2023-04-07T07:03:50.548Z,21.37
2023-04-07T07:06:23.331Z,21.02
2023-04-07T07:08:55.915Z,20.75
2023-04-07T07:11:28.123Z,20.22
2023-04-07T07:14:00.598Z,19.65
2023-04-07T07:16:32.741Z,19.04
2023-04-07T07:19:04.972Z,18.11
2023-04-07T07:21:37.678Z,17.14
2023-04-07T07:24:10.388Z,16.22
2023-04-07T07:26:44.499Z,15.51
2023-04-07T07:29:16.555Z,14.85
2023-04-07T07:31:48.686Z,14.34
2023-04-07T07:34:21.601Z,13.89
2023-04-07T07:36:54.171Z,13.57
2023-04-07T07:39:26.098Z,13.29
2023-04-07T07:41:58.299Z,13.05
2023-04-07T07:44:32.521Z,12.83
2023-04-07T07:47:05.026Z,12.64
2023-04-07T07:49:37.785Z,12.48
2023-04-07T07:52:11.062Z,12.36
2023-04-07T07:54:43.625Z,12.28
2023-04-07T07:57:16.314Z,12.25
2023-04-07T07:59:49.022Z,12.22
2023-04-07T08:02:21.594Z,12.25
2023-04-07T08:04:53.897Z,12.27
2023-04-07T08:07:26.080Z,12.23
2023-04-07T08:09:58.207Z,12.22
2023-04-07T08:12:30.280Z,12.22
2023-04-07T08:15:02.976Z,12.28
2023-04-07T08:17:35.125Z,12.30
2023-04-07T08:20:08.609Z,12.26
2023-04-07T08:22:40.718Z,12.28
2023-04-07T08:25:13.098Z,12.27
2023-04-07T08:27:46.780Z,12.31
2023-04-07T08:30:20.707Z,12.29
2023-04-07T08:32:53.420Z,12.28
2023-04-07T08:35:25.622Z,12.32
2023-04-07T08:37:57.831Z,12.32
2023-04-07T08:40:29.986Z,12.30
2023-04-07T08:43:05.163Z,12.27
2023-04-07T08:45:42.687Z,12.23
2023-04-07T08:48:23.529Z,12.26
2023-04-07T08:50:56.279Z,12.28
2023-04-07T08:53:31.556Z,12.32
2023-04-07T08:56:03.749Z,12.37
2023-04-07T08:58:38.753Z,12.44
2023-04-07T09:01:11.685Z,12.47
2023-04-07T09:03:46.834Z,12.50
2023-04-07T09:06:19.337Z,12.53
2023-04-07T09:08:51.763Z,12.53
2023-04-07T09:11:24.055Z,12.54
2023-04-07T09:13:57.142Z,12.56
2023-04-07T09:16:32.360Z,12.56
2023-04-07T09:19:04.687Z,12.59
2023-04-07T09:21:53.574Z,12.62
2023-04-07T09:24:28.173Z,12.66
2023-04-07T09:27:20.402Z,12.71
2023-04-07T09:29:54.060Z,12.75
2023-04-07T09:32:39.546Z,12.76
2023-04-07T09:35:13.020Z,12.75
2023-04-07T09:37:45.640Z,12.83
2023-04-07T09:40:20.759Z,12.88
2023-04-07T09:42:52.790Z,12.94
2023-04-07T09:48:05.828Z,13.03
2023-04-07T09:50:41.576Z,13.06
2023-04-07T09:53:14.499Z,13.10
2023-04-07T09:55:47.262Z,13.18
2023-04-07T09:58:20.655Z,13.26
2023-04-07T10:00:54.082Z,13.31
2023-04-07T10:03:26.364Z,13.32
2023-04-07T10:05:58.804Z,13.33
2023-04-07T10:08:34.568Z,13.36
2023-04-07T10:11:08.267Z,13.43
2023-04-07T10:13:42.147Z,13.53
2023-04-07T10:16:14.321Z,13.62
2023-04-07T10:18:47.458Z,13.67
2023-04-07T10:21:19.889Z,13.75
2023-04-07T10:24:03.459Z,13.78
2023-04-07T10:26:40.023Z,13.84
2023-04-07T10:29:15.473Z,14.00
2023-04-07T10:31:48.057Z,14.11
2023-04-07T10:34:22.967Z,14.21
2023-04-07T10:37:14.729Z,14.29
2023-04-07T10:39:48.906Z,14.35
2023-04-07T10:42:41.903Z,14.47
2023-04-07T10:45:14.372Z,14.61
2023-04-07T10:48:04.730Z,14.82
2023-04-07T10:50:37.646Z,15.01
2023-04-07T10:53:12.885Z,15.09
2023-04-07T10:55:46.491Z,15.09
2023-04-07T10:58:26.100Z,15.11
2023-04-07T11:01:13.108Z,15.14
2023-04-07T11:03:57.189Z,15.08
2023-04-07T11:06:29.804Z,15.11
2023-04-07T11:09:02.041Z,15.11
2023-04-07T11:11:39.252Z,15.17
2023-04-07T11:14:11.831Z,15.15
2023-04-07T11:16:45.992Z,15.13
2023-04-07T11:19:18.516Z,15.07
2023-04-07T11:21:51.076Z,15.06
2023-04-07T11:24:37.800Z,15.09
2023-04-07T11:27:16.957Z,15.07
2023-04-07T11:29:49.375Z,15.10
2023-04-07T11:32:28.892Z,15.12
2023-04-07T11:35:01.731Z,15.21
2023-04-07T11:37:34.183Z,15.23
2023-04-07T11:40:07.126Z,15.20
2023-04-07T11:42:40.784Z,15.18
2023-04-07T11:45:20.824Z,15.20
2023-04-07T11:47:53.408Z,15.20
2023-04-07T11:50:43.974Z,15.24
2023-04-07T11:53:17.581Z,15.26
2023-04-07T11:55:49.906Z,15.32
2023-04-07T11:58:22.039Z,15.39
2023-04-07T12:00:58.472Z,15.44
2023-04-07T12:03:30.802Z,15.52
2023-04-07T12:06:07.781Z,15.58
2023-04-07T12:08:44.920Z,15.71
2023-04-07T12:11:17.159Z,15.79
2023-04-07T12:13:49.763Z,15.87
2023-04-07T12:16:23.407Z,15.98
2023-04-07T12:18:55.624Z,16.15
2023-04-07T12:21:27.767Z,16.53
2023-04-07T12:23:59.818Z,17.35
2023-04-07T12:26:32.032Z,18.69
2023-04-07T12:29:07.195Z,20.48
2023-04-07T12:31:39.914Z,22.49
2023-04-07T12:34:12.624Z,24.15
2023-04-07T12:36:45.238Z,25.54
2023-04-07T12:39:17.648Z,26.85
2023-04-07T12:41:51.746Z,27.80
2023-04-07T12:44:24.265Z,28.95
2023-04-07T12:46:56.382Z,29.87
2023-04-07T12:49:29.240Z,30.94
2023-04-07T12:52:02.141Z,31.87
2023-04-07T12:54:34.523Z,32.72
2023-04-07T12:57:06.591Z,33.32
2023-04-07T12:59:39.111Z,33.51
2023-04-07T13:02:14.037Z,33.53
2023-04-07T13:04:47.083Z,33.55
2023-04-07T13:07:20.478Z,33.45
2023-04-07T13:09:52.760Z,33.08
2023-04-07T13:12:25.990Z,32.73
2023-04-07T13:15:00.649Z,32.67
2023-04-07T13:17:35.599Z,32.97
2023-04-07T13:20:08.256Z,33.62
2023-04-07T13:22:49.279Z,35.78
2023-04-07T13:25:14.634Z,34.31
2023-04-07T13:27:46.840Z,34.86
2023-04-07T13:30:22.692Z,35.48
2023-04-07T13:32:54.370Z,36.13
2023-04-07T13:35:26.674Z,36.63
2023-04-07T13:37:59.049Z,37.04
2023-04-07T13:40:31.318Z,37.49
2023-04-07T13:43:03.419Z,37.98
2023-04-07T13:45:36.583Z,38.28
2023-04-07T13:48:09.521Z,38.51
2023-04-07T13:50:41.757Z,38.31
2023-04-07T13:53:13.959Z,38.25
2023-04-07T13:55:46.514Z,37.92
2023-04-07T13:58:19.221Z,37.62
2023-04-07T14:00:51.631Z,37.49
2023-04-07T14:03:24.470Z,37.31
2023-04-07T14:05:58.339Z,37.02
2023-04-07T14:08:30.722Z,37.00
2023-04-07T14:11:03.649Z,37.09
2023-04-07T14:13:36.519Z,37.08
2023-04-07T14:16:09.450Z,37.07
2023-04-07T14:18:42.555Z,36.98
2023-04-07T14:21:15.409Z,36.85
2023-04-07T14:23:48.050Z,36.62
2023-04-07T14:26:21.560Z,36.10
2023-04-07T14:28:54.159Z,35.74
2023-04-07T14:31:26.479Z,35.25
2023-04-07T14:33:58.849Z,34.68
2023-04-07T14:36:32.979Z,34.16
2023-04-07T14:39:04.921Z,33.63
2023-04-07T14:41:37.492Z,33.23
2023-04-07T14:44:09.567Z,32.27
2023-04-07T14:46:42.718Z,30.32
2023-04-07T14:49:16.519Z,27.99
2023-04-07T14:51:48.871Z,25.88
2023-04-07T14:54:21.734Z,24.00
2023-04-07T14:56:54.075Z,22.38
2023-04-07T14:59:26.644Z,20.95
2023-04-07T15:02:00.493Z,19.69
2023-04-07T15:04:33.287Z,18.71
2023-04-07T15:07:06.144Z,17.88
2023-04-07T15:09:39.079Z,17.19
2023-04-07T15:12:11.483Z,16.64
2023-04-07T15:14:46.293Z,16.10
2023-04-07T15:17:18.980Z,15.67
2023-04-07T15:19:51.455Z,15.29
2023-04-07T15:22:23.909Z,14.94
2023-04-07T15:24:56.174Z,14.64
2023-04-07T15:27:28.914Z,14.37
2023-04-07T15:30:01.344Z,14.10
2023-04-07T15:32:34.268Z,13.85
2023-04-07T15:35:07.187Z,13.64
2023-04-07T15:37:39.441Z,13.43
2023-04-07T15:40:12.045Z,13.21
2023-04-07T15:42:44.429Z,13.01
2023-04-07T15:45:16.500Z,12.82
2023-04-07T15:47:48.786Z,12.63
2023-04-07T15:50:21.544Z,12.49
2023-04-07T15:52:53.788Z,12.33
2023-04-07T15:55:26.000Z,12.21
2023-04-07T15:57:58.563Z,12.08
2023-04-07T16:00:32.937Z,11.97
2023-04-07T16:03:05.852Z,11.84
2023-04-07T16:05:39.218Z,11.76
2023-04-07T16:08:13.679Z,11.67
2023-04-07T16:10:46.035Z,11.58
2023-04-07T16:13:18.112Z,11.50
2023-04-07T16:15:50.647Z,11.40
2023-04-07T16:18:23.252Z,11.31
2023-04-07T16:20:55.490Z,11.22
2023-04-07T16:23:28.069Z,11.11
2023-04-07T16:26:00.171Z,11.03
2023-04-07T16:28:44.800Z,10.92
2023-04-07T16:31:17.046Z,10.84
2023-04-07T16:33:52.772Z,10.76
2023-04-07T16:36:25.153Z,10.67
2023-04-07T16:38:57.775Z,10.57
2023-04-07T16:41:30.054Z,10.46
2023-04-07T16:44:02.631Z,10.36
2023-04-07T16:46:34.822Z,10.28
2023-04-07T16:49:07.005Z,10.20
2023-04-07T16:51:39.158Z,10.14
2023-04-07T16:54:11.439Z,10.09
2023-04-07T16:56:43.543Z,10.07
2023-04-07T16:59:16.380Z,10.04
2023-04-07T17:01:48.423Z,9.99
2023-04-07T17:04:20.740Z,9.92
2023-04-07T17:06:53.150Z,9.84
2023-04-07T17:09:25.733Z,9.79
2023-04-07T17:11:57.971Z,9.71
2023-04-07T17:14:30.824Z,9.64
2023-04-07T17:17:03.586Z,9.60
2023-04-07T17:19:36.173Z,9.55
2023-04-07T17:22:08.483Z,9.52
2023-04-07T17:24:40.556Z,9.46
2023-04-07T17:27:12.735Z,9.43
2023-04-07T17:29:44.947Z,9.39
2023-04-07T17:32:17.166Z,9.36
2023-04-07T17:34:49.396Z,9.34
2023-04-07T17:37:21.321Z,9.29
2023-04-07T17:39:53.656Z,9.26
2023-04-07T17:42:26.224Z,9.19
2023-04-07T17:44:58.399Z,9.17
2023-04-07T17:47:30.864Z,9.14
2023-04-07T17:50:03.129Z,9.08
2023-04-07T17:52:35.504Z,9.04
2023-04-07T17:55:08.751Z,9.00
2023-04-07T17:57:42.551Z,8.96
2023-04-07T18:00:15.188Z,8.92
2023-04-07T18:02:47.706Z,8.88
2023-04-07T18:05:20.615Z,8.84
2023-04-07T18:07:55.090Z,8.81
2023-04-07T18:10:28.249Z,8.78
2023-04-07T18:13:00.662Z,8.75
2023-04-07T18:15:33.440Z,8.71
2023-04-07T18:18:05.838Z,8.70
2023-04-07T18:20:38.088Z,8.67
2023-04-07T18:23:10.711Z,8.63
2023-04-07T18:25:42.956Z,8.64
2023-04-07T18:28:15.268Z,8.58
2023-04-07T18:30:47.439Z,8.56
2023-04-07T18:33:19.761Z,8.52
2023-04-07T18:35:51.908Z,8.49
2023-04-07T18:38:23.826Z,8.46
2023-04-07T18:40:56.362Z,8.41
2023-04-07T18:43:28.432Z,8.38
2023-04-07T18:46:00.877Z,8.36
2023-04-07T18:48:33.414Z,8.31
2023-04-07T18:51:05.951Z,8.29
2023-04-07T18:53:38.749Z,8.26
2023-04-07T18:56:10.800Z,8.23
2023-04-07T18:58:44.337Z,8.20
2023-04-07T19:01:16.853Z,8.16
2023-04-07T19:03:49.353Z,8.13
2023-04-07T19:06:22.242Z,8.10
2023-04-07T19:08:54.813Z,8.06
2023-04-07T19:11:27.233Z,8.04
2023-04-07T19:13:59.376Z,8.03
2023-04-07T19:16:32.418Z,8.01
2023-04-07T19:19:05.238Z,7.98
2023-04-07T19:21:37.300Z,7.94
2023-04-07T19:24:09.320Z,7.94
2023-04-07T19:26:41.380Z,7.92
2023-04-07T19:29:13.437Z,7.89
2023-04-07T19:31:45.731Z,7.86
2023-04-07T19:34:17.692Z,7.86
2023-04-07T19:36:49.798Z,7.84
2023-04-07T19:39:21.820Z,7.85
2023-04-07T19:41:53.775Z,7.83
2023-04-07T19:44:26.891Z,7.81
2023-04-07T19:46:59.184Z,7.81
2023-04-07T19:49:31.411Z,7.81
2023-04-07T19:52:04.354Z,7.77
2023-04-07T19:54:36.550Z,7.76
2023-04-07T19:57:08.833Z,7.74
2023-04-07T19:59:41.188Z,7.71
2023-04-07T20:02:13.323Z,7.70
2023-04-07T20:04:46.040Z,7.64
2023-04-07T20:07:18.493Z,7.59
2023-04-07T20:09:52.209Z,7.55
2023-04-07T20:12:24.792Z,7.52
2023-04-07T20:14:56.944Z,7.51
2023-04-07T20:17:29.186Z,7.48
2023-04-07T20:20:02.013Z,7.46
2023-04-07T20:22:36.845Z,7.42
2023-04-07T20:25:09.759Z,7.38
2023-04-07T20:27:44.063Z,7.33
2023-04-07T20:30:16.662Z,7.28
2023-04-07T20:32:49.507Z,7.28
2023-04-07T20:35:22.087Z,7.23
2023-04-07T20:37:54.544Z,7.23
2023-04-07T20:40:27.803Z,7.20
2023-04-07T20:43:00.506Z,7.20
2023-04-07T20:45:34.427Z,7.18
2023-04-07T20:48:06.990Z,7.17
2023-04-07T20:50:39.858Z,7.16
2023-04-07T20:53:12.390Z,7.13
2023-04-07T20:55:44.459Z,7.10
2023-04-07T20:58:17.957Z,7.05
2023-04-07T21:00:51.699Z,7.02
2023-04-07T21:03:28.117Z,7.01
2023-04-07T21:06:00.503Z,6.97
2023-04-07T21:08:32.795Z,6.91
2023-04-07T21:11:04.877Z,6.87
2023-04-07T21:13:36.961Z,6.82
2023-04-07T21:16:09.207Z,6.82
2023-04-07T21:18:42.837Z,6.81
2023-04-07T21:21:16.060Z,6.81
2023-04-07T21:23:49.150Z,6.81
2023-04-07T21:26:21.210Z,6.78
2023-04-07T21:28:53.653Z,6.77
2023-04-07T21:31:26.260Z,6.75
2023-04-07T21:33:58.389Z,6.73
2023-04-07T21:36:32.194Z,6.69
2023-04-07T21:39:04.789Z,6.66
2023-04-07T21:41:37.301Z,6.63
2023-04-07T21:44:11.266Z,6.63
2023-04-07T21:46:43.385Z,6.62
2023-04-07T21:49:15.764Z,6.59
2023-04-07T21:51:47.996Z,6.58
2023-04-07T21:54:20.194Z,6.54
2023-04-07T21:56:52.844Z,6.54
2023-04-07T21:59:25.037Z,6.53
2023-04-07T22:01:57.903Z,6.49
2023-04-07T22:04:30.780Z,6.45
2023-04-07T22:07:04.201Z,6.41
2023-04-07T22:09:37.283Z,6.38
2023-04-07T22:12:09.724Z,6.33
2023-04-07T22:14:43.009Z,6.33
2023-04-07T22:17:15.277Z,6.28
2023-04-07T22:19:47.572Z,6.27
2023-04-07T22:22:20.230Z,6.27
2023-04-07T22:24:52.457Z,6.24
2023-04-07T22:27:24.852Z,6.22
2023-04-07T22:29:57.267Z,6.20
2023-04-07T22:32:29.501Z,6.15
2023-04-07T22:35:01.530Z,6.11
2023-04-07T22:37:33.650Z,6.09
2023-04-07T22:40:06.436Z,6.08
2023-04-07T22:42:40.352Z,6.07
2023-04-07T22:45:12.957Z,6.05
2023-04-07T22:47:46.137Z,6.04
2023-04-07T22:50:18.268Z,6.00
2023-04-07T22:52:50.859Z,5.94
2023-04-07T22:55:22.899Z,5.91
2023-04-07T22:57:55.141Z,5.87
2023-04-07T23:00:28.281Z,5.83
2023-04-07T23:03:00.482Z,5.83
2023-04-07T23:05:34.277Z,5.82
2023-04-07T23:08:06.626Z,5.81
2023-04-07T23:10:42.308Z,5.81
2023-04-07T23:13:15.996Z,5.79
2023-04-07T23:15:49.107Z,5.79
2023-04-07T23:18:22.854Z,5.76
2023-04-07T23:20:55.187Z,5.74
2023-04-07T23:23:27.502Z,5.71
2023-04-07T23:26:01.672Z,5.68
2023-04-07T23:28:34.106Z,5.68
2023-04-07T23:31:07.792Z,5.66
2023-04-07T23:33:39.967Z,5.65
2023-04-07T23:36:12.206Z,5.66
2023-04-07T23:38:44.512Z,5.62
2023-04-07T23:41:18.238Z,5.59
2023-04-07T23:43:50.458Z,5.57
2023-04-07T23:46:25.035Z,5.55
2023-04-07T23:49:06.989Z,5.54
2023-04-07T23:51:42.573Z,5.51
2023-04-07T23:54:14.895Z,5.48
2023-04-07T23:56:49.805Z,5.46
2023-04-07T23:59:26.784Z,5.46
